sensor_id;sensor_type;location;lat;lon;timestamp;P1;durP1;ratioP1;P2;durP2;ratioP2
21152;SDS011;10734;44.792;20.482;2022-08-03T00:01:48;7.32;;;4.65;;
21152;SDS011;10734;44.792;20.482;2022-08-03T00:04:14;8.70;;;4.90;;
21152;SDS011;10734;44.792;20.482;2022-08-03T00:06:41;14.52;;;5.45;;
21152;SDS011;10734;44.792;20.482;2022-08-03T00:09:08;8.45;;;5.78;;
21152;SDS011;10734;44.792;20.482;2022-08-03T00:11:35;16.05;;;6.28;;
21152;SDS011;10734;44.792;20.482;2022-08-03T00:14:03;12.73;;;5.85;;
21152;SDS011;10734;44.792;20.482;2022-08-03T00:16:31;12.98;;;6.10;;
21152;SDS011;10734;44.792;20.482;2022-08-03T00:18:58;16.92;;;7.10;;
21152;SDS011;10734;44.792;20.482;2022-08-03T00:21:26;12.25;;;6.05;;
21152;SDS011;10734;44.792;20.482;2022-08-03T00:23:54;19.05;;;7.40;;
21152;SDS011;10734;44.792;20.482;2022-08-03T00:26:21;15.52;;;6.85;;
21152;SDS011;10734;44.792;20.482;2022-08-03T00:28:48;12.25;;;5.55;;
21152;SDS011;10734;44.792;20.482;2022-08-03T00:31:16;11.93;;;6.40;;
21152;SDS011;10734;44.792;20.482;2022-08-03T00:34:02;16.92;;;6.88;;
21152;SDS011;10734;44.792;20.482;2022-08-03T00:36:29;14.10;;;6.55;;
21152;SDS011;10734;44.792;20.482;2022-08-03T00:38:56;17.00;;;6.63;;
21152;SDS011;10734;44.792;20.482;2022-08-03T00:41:23;18.15;;;7.47;;
21152;SDS011;10734;44.792;20.482;2022-08-03T00:43:49;18.13;;;6.75;;
21152;SDS011;10734;44.792;20.482;2022-08-03T00:46:16;15.15;;;7.40;;
21152;SDS011;10734;44.792;20.482;2022-08-03T00:48:50;10.57;;;6.30;;
21152;SDS011;10734;44.792;20.482;2022-08-03T00:51:18;10.20;;;6.43;;
21152;SDS011;10734;44.792;20.482;2022-08-03T00:53:46;9.40;;;5.90;;
21152;SDS011;10734;44.792;20.482;2022-08-03T00:56:14;10.98;;;6.68;;
21152;SDS011;10734;44.792;20.482;2022-08-03T00:58:42;11.20;;;6.40;;
21152;SDS011;10734;44.792;20.482;2022-08-03T01:01:11;11.57;;;6.18;;
21152;SDS011;10734;44.792;20.482;2022-08-03T01:03:38;13.85;;;6.35;;
21152;SDS011;10734;44.792;20.482;2022-08-03T01:14:37;9.80;;;5.28;;
21152;SDS011;10734;44.792;20.482;2022-08-03T01:17:12;10.95;;;5.43;;
21152;SDS011;10734;44.792;20.482;2022-08-03T01:19:55;9.95;;;6.18;;
21152;SDS011;10734;44.792;20.482;2022-08-03T01:31:36;10.55;;;5.85;;
21152;SDS011;10734;44.792;20.482;2022-08-03T01:34:33;9.70;;;6.57;;
21152;SDS011;10734;44.792;20.482;2022-08-03T01:37:06;7.85;;;6.05;;
21152;SDS011;10734;44.792;20.482;2022-08-03T01:39:36;8.43;;;5.90;;
21152;SDS011;10734;44.792;20.482;2022-08-03T01:42:05;8.18;;;5.60;;
21152;SDS011;10734;44.792;20.482;2022-08-03T01:44:39;13.73;;;6.38;;
21152;SDS011;10734;44.792;20.482;2022-08-03T01:47:07;15.07;;;6.22;;
21152;SDS011;10734;44.792;20.482;2022-08-03T01:49:38;13.13;;;5.93;;
21152;SDS011;10734;44.792;20.482;2022-08-03T01:52:09;7.65;;;4.97;;
21152;SDS011;10734;44.792;20.482;2022-08-03T01:54:41;11.13;;;5.85;;
21152;SDS011;10734;44.792;20.482;2022-08-03T01:57:11;9.30;;;6.30;;
21152;SDS011;10734;44.792;20.482;2022-08-03T01:59:39;8.30;;;5.50;;
21152;SDS011;10734;44.792;20.482;2022-08-03T02:02:09;9.65;;;5.63;;
21152;SDS011;10734;44.792;20.482;2022-08-03T02:04:58;7.68;;;5.10;;
21152;SDS011;10734;44.792;20.482;2022-08-03T02:07:26;5.90;;;5.25;;
21152;SDS011;10734;44.792;20.482;2022-08-03T02:09:55;8.40;;;5.93;;
21152;SDS011;10734;44.792;20.482;2022-08-03T02:12:28;10.13;;;6.32;;
21152;SDS011;10734;44.792;20.482;2022-08-03T02:14:57;10.20;;;5.88;;
21152;SDS011;10734;44.792;20.482;2022-08-03T02:17:26;7.55;;;6.30;;
21152;SDS011;10734;44.792;20.482;2022-08-03T02:20:05;10.50;;;6.13;;
21152;SDS011;10734;44.792;20.482;2022-08-03T02:22:33;10.70;;;6.25;;
21152;SDS011;10734;44.792;20.482;2022-08-03T02:25:04;17.00;;;6.03;;
21152;SDS011;10734;44.792;20.482;2022-08-03T02:27:36;13.00;;;5.95;;
21152;SDS011;10734;44.792;20.482;2022-08-03T02:30:09;16.02;;;6.32;;
21152;SDS011;10734;44.792;20.482;2022-08-03T02:32:38;11.68;;;5.93;;
21152;SDS011;10734;44.792;20.482;2022-08-03T02:35:10;6.97;;;5.90;;
21152;SDS011;10734;44.792;20.482;2022-08-03T02:37:42;11.75;;;5.43;;
21152;SDS011;10734;44.792;20.482;2022-08-03T02:40:15;6.57;;;5.20;;
21152;SDS011;10734;44.792;20.482;2022-08-03T02:42:45;7.78;;;5.25;;
21152;SDS011;10734;44.792;20.482;2022-08-03T02:45:15;9.73;;;4.93;;
21152;SDS011;10734;44.792;20.482;2022-08-03T02:47:43;12.30;;;5.68;;
21152;SDS011;10734;44.792;20.482;2022-08-03T02:50:20;10.27;;;5.70;;
21152;SDS011;10734;44.792;20.482;2022-08-03T02:52:48;8.00;;;5.22;;
21152;SDS011;10734;44.792;20.482;2022-08-03T02:55:17;10.05;;;5.47;;
21152;SDS011;10734;44.792;20.482;2022-08-03T02:57:46;16.50;;;5.13;;
21152;SDS011;10734;44.792;20.482;2022-08-03T03:00:15;10.60;;;4.50;;
21152;SDS011;10734;44.792;20.482;2022-08-03T03:02:54;9.85;;;4.63;;
21152;SDS011;10734;44.792;20.482;2022-08-03T03:05:22;5.70;;;4.75;;
21152;SDS011;10734;44.792;20.482;2022-08-03T03:08:11;6.95;;;5.40;;
21152;SDS011;10734;44.792;20.482;2022-08-03T03:10:44;6.97;;;4.88;;
21152;SDS011;10734;44.792;20.482;2022-08-03T03:13:12;10.38;;;4.80;;
21152;SDS011;10734;44.792;20.482;2022-08-03T03:15:41;8.90;;;4.50;;
21152;SDS011;10734;44.792;20.482;2022-08-03T03:18:08;7.35;;;5.10;;
21152;SDS011;10734;44.792;20.482;2022-08-03T03:20:36;5.80;;;4.63;;
21152;SDS011;10734;44.792;20.482;2022-08-03T03:23:06;5.38;;;4.07;;
21152;SDS011;10734;44.792;20.482;2022-08-03T03:25:34;10.05;;;4.70;;
21152;SDS011;10734;44.792;20.482;2022-08-03T03:28:01;8.93;;;4.00;;
21152;SDS011;10734;44.792;20.482;2022-08-03T03:30:31;7.30;;;4.95;;
21152;SDS011;10734;44.792;20.482;2022-08-03T03:32:59;10.23;;;4.82;;
21152;SDS011;10734;44.792;20.482;2022-08-03T03:35:26;6.00;;;4.32;;
21152;SDS011;10734;44.792;20.482;2022-08-03T03:37:53;8.27;;;4.93;;
21152;SDS011;10734;44.792;20.482;2022-08-03T03:40:20;5.68;;;4.70;;
21152;SDS011;10734;44.792;20.482;2022-08-03T03:42:48;5.47;;;4.05;;
21152;SDS011;10734;44.792;20.482;2022-08-03T03:45:15;9.25;;;4.38;;
21152;SDS011;10734;44.792;20.482;2022-08-03T03:47:43;15.20;;;5.00;;
21152;SDS011;10734;44.792;20.482;2022-08-03T03:50:10;11.30;;;5.07;;
21152;SDS011;10734;44.792;20.482;2022-08-03T03:52:36;11.63;;;5.15;;
21152;SDS011;10734;44.792;20.482;2022-08-03T03:55:03;8.32;;;4.35;;
21152;SDS011;10734;44.792;20.482;2022-08-03T03:57:30;6.43;;;4.20;;
21152;SDS011;10734;44.792;20.482;2022-08-03T03:59:57;6.57;;;4.70;;
21152;SDS011;10734;44.792;20.482;2022-08-03T04:02:24;6.57;;;4.70;;
21152;SDS011;10734;44.792;20.482;2022-08-03T04:04:50;7.40;;;4.60;;
21152;SDS011;10734;44.792;20.482;2022-08-03T04:08:05;10.35;;;4.57;;
21152;SDS011;10734;44.792;20.482;2022-08-03T04:13:39;9.48;;;4.95;;
21152;SDS011;10734;44.792;20.482;2022-08-03T04:16:12;9.35;;;4.68;;
21152;SDS011;10734;44.792;20.482;2022-08-03T04:18:41;7.20;;;4.40;;
21152;SDS011;10734;44.792;20.482;2022-08-03T04:21:14;6.57;;;5.20;;
21152;SDS011;10734;44.792;20.482;2022-08-03T04:23:45;9.60;;;5.15;;
21152;SDS011;10734;44.792;20.482;2022-08-03T04:26:16;10.63;;;5.32;;
21152;SDS011;10734;44.792;20.482;2022-08-03T04:28:46;9.20;;;5.13;;
21152;SDS011;10734;44.792;20.482;2022-08-03T04:31:15;7.38;;;5.25;;
21152;SDS011;10734;44.792;20.482;2022-08-03T04:33:45;6.95;;;4.60;;
21152;SDS011;10734;44.792;20.482;2022-08-03T04:36:15;12.13;;;4.97;;
21152;SDS011;10734;44.792;20.482;2022-08-03T04:41:32;7.18;;;4.00;;
21152;SDS011;10734;44.792;20.482;2022-08-03T04:44:20;12.32;;;4.00;;
21152;SDS011;10734;44.792;20.482;2022-08-03T04:46:54;7.90;;;4.82;;
21152;SDS011;10734;44.792;20.482;2022-08-03T04:49:22;6.60;;;4.00;;
21152;SDS011;10734;44.792;20.482;2022-08-03T04:51:49;8.38;;;4.28;;
21152;SDS011;10734;44.792;20.482;2022-08-03T04:54:16;9.05;;;4.22;;
21152;SDS011;10734;44.792;20.482;2022-08-03T04:56:43;7.43;;;4.53;;
21152;SDS011;10734;44.792;20.482;2022-08-03T04:59:10;4.55;;;3.45;;
21152;SDS011;10734;44.792;20.482;2022-08-03T05:01:38;7.20;;;3.97;;
21152;SDS011;10734;44.792;20.482;2022-08-03T05:04:05;6.38;;;4.60;;
21152;SDS011;10734;44.792;20.482;2022-08-03T05:06:31;5.20;;;4.13;;
21152;SDS011;10734;44.792;20.482;2022-08-03T05:09:00;8.50;;;5.18;;
21152;SDS011;10734;44.792;20.482;2022-08-03T05:11:29;10.68;;;5.63;;
21152;SDS011;10734;44.792;20.482;2022-08-03T05:13:56;7.80;;;5.82;;
21152;SDS011;10734;44.792;20.482;2022-08-03T05:16:22;7.18;;;5.03;;
21152;SDS011;10734;44.792;20.482;2022-08-03T05:18:51;9.73;;;5.32;;
21152;SDS011;10734;44.792;20.482;2022-08-03T05:21:17;9.18;;;4.70;;
21152;SDS011;10734;44.792;20.482;2022-08-03T05:23:44;14.38;;;5.03;;
21152;SDS011;10734;44.792;20.482;2022-08-03T05:26:11;11.90;;;4.90;;
21152;SDS011;10734;44.792;20.482;2022-08-03T05:28:37;8.57;;;5.10;;
21152;SDS011;10734;44.792;20.482;2022-08-03T05:31:13;6.32;;;4.85;;
21152;SDS011;10734;44.792;20.482;2022-08-03T05:33:40;11.75;;;6.20;;
21152;SDS011;10734;44.792;20.482;2022-08-03T05:36:06;12.35;;;4.88;;
21152;SDS011;10734;44.792;20.482;2022-08-03T05:38:33;7.18;;;5.22;;
21152;SDS011;10734;44.792;20.482;2022-08-03T05:41:03;11.60;;;6.20;;
21152;SDS011;10734;44.792;20.482;2022-08-03T05:43:49;9.73;;;6.15;;
21152;SDS011;10734;44.792;20.482;2022-08-03T05:46:20;12.67;;;5.50;;
21152;SDS011;10734;44.792;20.482;2022-08-03T05:48:47;12.82;;;5.55;;
21152;SDS011;10734;44.792;20.482;2022-08-03T05:51:14;8.10;;;5.20;;
21152;SDS011;10734;44.792;20.482;2022-08-03T05:53:41;10.27;;;5.70;;
21152;SDS011;10734;44.792;20.482;2022-08-03T05:56:08;8.15;;;5.00;;
21152;SDS011;10734;44.792;20.482;2022-08-03T05:58:44;21.40;;;6.32;;
21152;SDS011;10734;44.792;20.482;2022-08-03T06:03:39;6.95;;;5.60;;
21152;SDS011;10734;44.792;20.482;2022-08-03T06:06:05;11.98;;;5.50;;
21152;SDS011;10734;44.792;20.482;2022-08-03T06:08:33;13.10;;;5.82;;
21152;SDS011;10734;44.792;20.482;2022-08-03T06:11:00;8.93;;;6.10;;
21152;SDS011;10734;44.792;20.482;2022-08-03T06:13:26;9.52;;;5.35;;
21152;SDS011;10734;44.792;20.482;2022-08-03T06:15:54;15.48;;;6.80;;
21152;SDS011;10734;44.792;20.482;2022-08-03T06:18:21;8.93;;;5.43;;
21152;SDS011;10734;44.792;20.482;2022-08-03T06:20:49;10.40;;;5.80;;
21152;SDS011;10734;44.792;20.482;2022-08-03T06:23:17;18.75;;;5.43;;
21152;SDS011;10734;44.792;20.482;2022-08-03T06:25:45;16.58;;;6.05;;
21152;SDS011;10734;44.792;20.482;2022-08-03T06:28:12;11.48;;;5.47;;
21152;SDS011;10734;44.792;20.482;2022-08-03T06:30:59;12.05;;;5.88;;
21152;SDS011;10734;44.792;20.482;2022-08-03T06:33:27;12.02;;;7.10;;
21152;SDS011;10734;44.792;20.482;2022-08-03T06:36:13;13.68;;;5.88;;
21152;SDS011;10734;44.792;20.482;2022-08-03T06:38:41;11.20;;;6.10;;
21152;SDS011;10734;44.792;20.482;2022-08-03T06:41:07;14.07;;;6.22;;
21152;SDS011;10734;44.792;20.482;2022-08-03T06:43:34;14.50;;;6.32;;
21152;SDS011;10734;44.792;20.482;2022-08-03T06:46:22;12.15;;;6.25;;
21152;SDS011;10734;44.792;20.482;2022-08-03T06:48:49;16.80;;;6.90;;
21152;SDS011;10734;44.792;20.482;2022-08-03T06:51:17;17.42;;;8.45;;
21152;SDS011;10734;44.792;20.482;2022-08-03T06:53:44;11.57;;;8.32;;
21152;SDS011;10734;44.792;20.482;2022-08-03T06:56:10;13.40;;;7.95;;
21152;SDS011;10734;44.792;20.482;2022-08-03T06:58:37;20.98;;;8.07;;
21152;SDS011;10734;44.792;20.482;2022-08-03T07:01:04;13.40;;;7.15;;
21152;SDS011;10734;44.792;20.482;2022-08-03T07:03:30;16.98;;;7.13;;
21152;SDS011;10734;44.792;20.482;2022-08-03T07:05:58;10.88;;;6.55;;
21152;SDS011;10734;44.792;20.482;2022-08-03T07:08:25;11.60;;;5.30;;
21152;SDS011;10734;44.792;20.482;2022-08-03T07:10:59;14.55;;;6.60;;
21152;SDS011;10734;44.792;20.482;2022-08-03T07:13:26;12.93;;;6.20;;
21152;SDS011;10734;44.792;20.482;2022-08-03T07:15:53;14.38;;;6.80;;
21152;SDS011;10734;44.792;20.482;2022-08-03T07:18:21;14.55;;;6.55;;
21152;SDS011;10734;44.792;20.482;2022-08-03T07:20:55;13.55;;;6.07;;
21152;SDS011;10734;44.792;20.482;2022-08-03T07:23:22;10.43;;;6.78;;
21152;SDS011;10734;44.792;20.482;2022-08-03T07:25:50;10.63;;;6.28;;
21152;SDS011;10734;44.792;20.482;2022-08-03T07:28:17;13.27;;;5.43;;
21152;SDS011;10734;44.792;20.482;2022-08-03T07:30:44;17.35;;;5.97;;
21152;SDS011;10734;44.792;20.482;2022-08-03T07:33:11;10.52;;;5.15;;
21152;SDS011;10734;44.792;20.482;2022-08-03T07:35:39;13.00;;;5.40;;
21152;SDS011;10734;44.792;20.482;2022-08-03T07:38:06;12.30;;;5.55;;
21152;SDS011;10734;44.792;20.482;2022-08-03T07:40:32;8.57;;;5.30;;
21152;SDS011;10734;44.792;20.482;2022-08-03T07:42:59;14.85;;;5.75;;
21152;SDS011;10734;44.792;20.482;2022-08-03T07:45:29;14.88;;;5.85;;
21152;SDS011;10734;44.792;20.482;2022-08-03T07:47:56;16.08;;;5.38;;
21152;SDS011;10734;44.792;20.482;2022-08-03T07:50:23;11.63;;;4.95;;
21152;SDS011;10734;44.792;20.482;2022-08-03T07:52:50;15.68;;;5.07;;
21152;SDS011;10734;44.792;20.482;2022-08-03T07:55:19;14.73;;;5.25;;
21152;SDS011;10734;44.792;20.482;2022-08-03T07:58:04;14.80;;;4.90;;
21152;SDS011;10734;44.792;20.482;2022-08-03T08:00:34;13.35;;;4.65;;
21152;SDS011;10734;44.792;20.482;2022-08-03T08:03:02;9.80;;;4.47;;
21152;SDS011;10734;44.792;20.482;2022-08-03T08:05:29;8.15;;;3.78;;
21152;SDS011;10734;44.792;20.482;2022-08-03T08:07:56;9.13;;;3.97;;
21152;SDS011;10734;44.792;20.482;2022-08-03T08:10:23;13.63;;;4.80;;
21152;SDS011;10734;44.792;20.482;2022-08-03T08:12:50;15.35;;;5.05;;
21152;SDS011;10734;44.792;20.482;2022-08-03T08:15:18;9.30;;;4.10;;
21152;SDS011;10734;44.792;20.482;2022-08-03T08:17:46;11.40;;;4.70;;
21152;SDS011;10734;44.792;20.482;2022-08-03T08:20:15;10.48;;;4.35;;
21152;SDS011;10734;44.792;20.482;2022-08-03T08:22:55;8.82;;;3.90;;
21152;SDS011;10734;44.792;20.482;2022-08-03T08:25:26;13.32;;;3.85;;
21152;SDS011;10734;44.792;20.482;2022-08-03T08:27:54;9.10;;;4.22;;
21152;SDS011;10734;44.792;20.482;2022-08-03T08:30:41;14.00;;;3.58;;
21152;SDS011;10734;44.792;20.482;2022-08-03T08:33:08;8.65;;;3.38;;
21152;SDS011;10734;44.792;20.482;2022-08-03T08:35:49;4.32;;;2.35;;
21152;SDS011;10734;44.792;20.482;2022-08-03T08:38:17;4.03;;;2.85;;
21152;SDS011;10734;44.792;20.482;2022-08-03T08:40:44;5.00;;;2.70;;
21152;SDS011;10734;44.792;20.482;2022-08-03T08:43:11;9.50;;;3.42;;
21152;SDS011;10734;44.792;20.482;2022-08-03T08:45:37;6.20;;;2.97;;
21152;SDS011;10734;44.792;20.482;2022-08-03T08:48:06;8.48;;;3.03;;
21152;SDS011;10734;44.792;20.482;2022-08-03T08:50:36;6.35;;;3.10;;
21152;SDS011;10734;44.792;20.482;2022-08-03T08:53:04;16.35;;;3.72;;
21152;SDS011;10734;44.792;20.482;2022-08-03T08:55:47;8.02;;;3.25;;
21152;SDS011;10734;44.792;20.482;2022-08-03T08:58:25;4.40;;;3.27;;
21152;SDS011;10734;44.792;20.482;2022-08-03T09:00:55;3.50;;;2.80;;
21152;SDS011;10734;44.792;20.482;2022-08-03T09:03:22;4.43;;;2.70;;
21152;SDS011;10734;44.792;20.482;2022-08-03T09:05:57;4.13;;;2.50;;
21152;SDS011;10734;44.792;20.482;2022-08-03T09:08:25;11.57;;;3.20;;
21152;SDS011;10734;44.792;20.482;2022-08-03T09:10:52;6.78;;;3.15;;
21152;SDS011;10734;44.792;20.482;2022-08-03T09:13:18;9.23;;;2.70;;
21152;SDS011;10734;44.792;20.482;2022-08-03T09:15:45;3.75;;;2.78;;
21152;SDS011;10734;44.792;20.482;2022-08-03T09:23:58;8.88;;;2.97;;
21152;SDS011;10734;44.792;20.482;2022-08-03T09:26:33;5.15;;;2.50;;
21152;SDS011;10734;44.792;20.482;2022-08-03T09:29:03;3.65;;;2.72;;
21152;SDS011;10734;44.792;20.482;2022-08-03T09:31:44;3.28;;;2.60;;
21152;SDS011;10734;44.792;20.482;2022-08-03T09:34:15;5.93;;;2.92;;
21152;SDS011;10734;44.792;20.482;2022-08-03T09:36:44;5.72;;;2.85;;
21152;SDS011;10734;44.792;20.482;2022-08-03T09:39:16;8.30;;;3.03;;
21152;SDS011;10734;44.792;20.482;2022-08-03T09:41:45;4.68;;;3.00;;
21152;SDS011;10734;44.792;20.482;2022-08-03T09:44:14;7.65;;;2.50;;
21152;SDS011;10734;44.792;20.482;2022-08-03T09:46:51;2.60;;;2.35;;
21152;SDS011;10734;44.792;20.482;2022-08-03T09:49:20;5.85;;;2.78;;
21152;SDS011;10734;44.792;20.482;2022-08-03T09:51:48;4.47;;;3.28;;
21152;SDS011;10734;44.792;20.482;2022-08-03T09:54:35;3.75;;;2.90;;
21152;SDS011;10734;44.792;20.482;2022-08-03T09:57:03;4.10;;;2.20;;
21152;SDS011;10734;44.792;20.482;2022-08-03T09:59:30;4.70;;;2.65;;
21152;SDS011;10734;44.792;20.482;2022-08-03T10:01:59;16.00;;;3.30;;
21152;SDS011;10734;44.792;20.482;2022-08-03T10:04:26;5.38;;;2.63;;
21152;SDS011;10734;44.792;20.482;2022-08-03T10:07:04;7.43;;;2.58;;
21152;SDS011;10734;44.792;20.482;2022-08-03T10:09:35;7.38;;;2.50;;
21152;SDS011;10734;44.792;20.482;2022-08-03T10:12:20;6.07;;;2.17;;
21152;SDS011;10734;44.792;20.482;2022-08-03T10:14:48;7.32;;;2.88;;
21152;SDS011;10734;44.792;20.482;2022-08-03T10:17:15;2.67;;;2.42;;
21152;SDS011;10734;44.792;20.482;2022-08-03T10:19:42;4.45;;;2.78;;
21152;SDS011;10734;44.792;20.482;2022-08-03T10:22:11;3.97;;;2.80;;
21152;SDS011;10734;44.792;20.482;2022-08-03T10:27:41;10.43;;;3.03;;
21152;SDS011;10734;44.792;20.482;2022-08-03T10:30:13;2.95;;;2.55;;
21152;SDS011;10734;44.792;20.482;2022-08-03T10:32:40;3.33;;;2.50;;
21152;SDS011;10734;44.792;20.482;2022-08-03T10:35:18;2.55;;;2.35;;
21152;SDS011;10734;44.792;20.482;2022-08-03T10:40:29;3.25;;;2.90;;
21152;SDS011;10734;44.792;20.482;2022-08-03T10:43:19;5.70;;;3.08;;
21152;SDS011;10734;44.792;20.482;2022-08-03T10:45:48;4.05;;;2.30;;
21152;SDS011;10734;44.792;20.482;2022-08-03T10:48:16;4.40;;;1.63;;
21152;SDS011;10734;44.792;20.482;2022-08-03T10:50:45;3.47;;;1.80;;
21152;SDS011;10734;44.792;20.482;2022-08-03T10:53:14;2.67;;;1.77;;
21152;SDS011;10734;44.792;20.482;2022-08-03T10:55:45;4.68;;;2.35;;
21152;SDS011;10734;44.792;20.482;2022-08-03T11:04:26;8.40;;;2.40;;
21152;SDS011;10734;44.792;20.482;2022-08-03T11:12:20;4.85;;;1.92;;
21152;SDS011;10734;44.792;20.482;2022-08-03T11:14:58;2.90;;;1.88;;
21152;SDS011;10734;44.792;20.482;2022-08-03T11:17:26;5.53;;;2.05;;
21152;SDS011;10734;44.792;20.482;2022-08-03T11:19:54;1.85;;;1.60;;
21152;SDS011;10734;44.792;20.482;2022-08-03T11:22:23;2.90;;;1.75;;
21152;SDS011;10734;44.792;20.482;2022-08-03T11:27:31;4.15;;;1.65;;
21152;SDS011;10734;44.792;20.482;2022-08-03T11:33:08;1.95;;;1.70;;
21152;SDS011;10734;44.792;20.482;2022-08-03T11:35:59;4.15;;;1.85;;
21152;SDS011;10734;44.792;20.482;2022-08-03T11:39:11;3.85;;;1.95;;
21152;SDS011;10734;44.792;20.482;2022-08-03T11:41:42;3.40;;;1.90;;
21152;SDS011;10734;44.792;20.482;2022-08-03T11:44:37;2.65;;;1.63;;
21152;SDS011;10734;44.792;20.482;2022-08-03T11:47:12;2.45;;;1.77;;
21152;SDS011;10734;44.792;20.482;2022-08-03T11:49:44;3.75;;;1.85;;
21152;SDS011;10734;44.792;20.482;2022-08-03T11:52:13;2.97;;;1.80;;
21152;SDS011;10734;44.792;20.482;2022-08-03T11:54:41;4.13;;;1.88;;
21152;SDS011;10734;44.792;20.482;2022-08-03T11:57:09;2.30;;;2.10;;
21152;SDS011;10734;44.792;20.482;2022-08-03T11:59:36;2.13;;;2.00;;
21152;SDS011;10734;44.792;20.482;2022-08-03T12:02:07;7.80;;;3.45;;
21152;SDS011;10734;44.792;20.482;2022-08-03T12:04:49;6.20;;;2.23;;
21152;SDS011;10734;44.792;20.482;2022-08-03T12:07:17;3.53;;;2.30;;
21152;SDS011;10734;44.792;20.482;2022-08-03T12:10:14;5.65;;;2.00;;
21152;SDS011;10734;44.792;20.482;2022-08-03T12:12:40;2.45;;;1.83;;
21152;SDS011;10734;44.792;20.482;2022-08-03T12:15:12;2.47;;;1.90;;
21152;SDS011;10734;44.792;20.482;2022-08-03T12:17:39;2.45;;;1.60;;
21152;SDS011;10734;44.792;20.482;2022-08-03T12:20:07;2.20;;;2.00;;
21152;SDS011;10734;44.792;20.482;2022-08-03T12:22:39;6.55;;;2.00;;
21152;SDS011;10734;44.792;20.482;2022-08-03T12:25:07;2.65;;;1.88;;
21152;SDS011;10734;44.792;20.482;2022-08-03T12:27:35;3.83;;;1.58;;
21152;SDS011;10734;44.792;20.482;2022-08-03T12:30:03;1.50;;;1.30;;
21152;SDS011;10734;44.792;20.482;2022-08-03T12:32:30;2.30;;;1.75;;
21152;SDS011;10734;44.792;20.482;2022-08-03T12:34:57;3.95;;;1.90;;
21152;SDS011;10734;44.792;20.482;2022-08-03T12:37:27;2.57;;;1.90;;
21152;SDS011;10734;44.792;20.482;2022-08-03T12:39:58;3.45;;;2.30;;
21152;SDS011;10734;44.792;20.482;2022-08-03T12:47:58;5.05;;;1.70;;
21152;SDS011;10734;44.792;20.482;2022-08-03T12:50:30;2.40;;;1.65;;
21152;SDS011;10734;44.792;20.482;2022-08-03T12:52:59;2.20;;;2.00;;
21152;SDS011;10734;44.792;20.482;2022-08-03T12:55:28;4.15;;;1.83;;
21152;SDS011;10734;44.792;20.482;2022-08-03T12:58:28;2.15;;;1.95;;
21152;SDS011;10734;44.792;20.482;2022-08-03T13:01:01;2.40;;;1.73;;
21152;SDS011;10734;44.792;20.482;2022-08-03T13:03:42;1.80;;;1.60;;
21152;SDS011;10734;44.792;20.482;2022-08-03T13:06:19;7.10;;;1.70;;
21152;SDS011;10734;44.792;20.482;2022-08-03T13:09:00;1.48;;;1.30;;
21152;SDS011;10734;44.792;20.482;2022-08-03T13:11:32;2.13;;;1.65;;
21152;SDS011;10734;44.792;20.482;2022-08-03T13:14:19;2.83;;;1.80;;
21152;SDS011;10734;44.792;20.482;2022-08-03T13:16:47;3.55;;;1.83;;
21152;SDS011;10734;44.792;20.482;2022-08-03T13:19:14;5.72;;;1.58;;
21152;SDS011;10734;44.792;20.482;2022-08-03T13:21:42;2.35;;;1.50;;
21152;SDS011;10734;44.792;20.482;2022-08-03T13:24:30;6.03;;;1.75;;
21152;SDS011;10734;44.792;20.482;2022-08-03T13:26:58;2.17;;;1.58;;
21152;SDS011;10734;44.792;20.482;2022-08-03T13:29:25;2.50;;;1.90;;
21152;SDS011;10734;44.792;20.482;2022-08-03T13:31:51;3.42;;;1.85;;
21152;SDS011;10734;44.792;20.482;2022-08-03T13:34:18;2.97;;;1.40;;
21152;SDS011;10734;44.792;20.482;2022-08-03T13:36:49;2.85;;;1.80;;
21152;SDS011;10734;44.792;20.482;2022-08-03T13:39:35;5.07;;;1.98;;
21152;SDS011;10734;44.792;20.482;2022-08-03T13:42:22;3.72;;;1.98;;
21152;SDS011;10734;44.792;20.482;2022-08-03T13:44:48;1.90;;;1.70;;
21152;SDS011;10734;44.792;20.482;2022-08-03T13:47:16;3.38;;;1.90;;
21152;SDS011;10734;44.792;20.482;2022-08-03T13:49:42;2.03;;;1.88;;
21152;SDS011;10734;44.792;20.482;2022-08-03T13:52:27;2.63;;;1.52;;
21152;SDS011;10734;44.792;20.482;2022-08-03T13:54:57;2.65;;;1.75;;
21152;SDS011;10734;44.792;20.482;2022-08-03T13:57:25;1.92;;;1.63;;
21152;SDS011;10734;44.792;20.482;2022-08-03T14:00:12;2.45;;;1.40;;
21152;SDS011;10734;44.792;20.482;2022-08-03T14:02:53;4.20;;;2.28;;
21152;SDS011;10734;44.792;20.482;2022-08-03T14:05:29;3.40;;;1.98;;
21152;SDS011;10734;44.792;20.482;2022-08-03T14:07:57;3.97;;;2.05;;
21152;SDS011;10734;44.792;20.482;2022-08-03T14:10:31;1.98;;;1.60;;
21152;SDS011;10734;44.792;20.482;2022-08-03T14:13:00;3.28;;;2.05;;
21152;SDS011;10734;44.792;20.482;2022-08-03T14:15:27;6.22;;;2.15;;
21152;SDS011;10734;44.792;20.482;2022-08-03T14:17:54;2.05;;;1.80;;
21152;SDS011;10734;44.792;20.482;2022-08-03T14:20:24;3.67;;;1.85;;
21152;SDS011;10734;44.792;20.482;2022-08-03T14:23:04;2.30;;;1.93;;
21152;SDS011;10734;44.792;20.482;2022-08-03T14:25:32;5.65;;;1.70;;
21152;SDS011;10734;44.792;20.482;2022-08-03T14:28:20;2.40;;;2.00;;
21152;SDS011;10734;44.792;20.482;2022-08-03T14:30:49;2.17;;;1.80;;
21152;SDS011;10734;44.792;20.482;2022-08-03T14:35:46;2.60;;;1.92;;
21152;SDS011;10734;44.792;20.482;2022-08-03T14:38:13;5.68;;;1.70;;
21152;SDS011;10734;44.792;20.482;2022-08-03T14:40:40;2.30;;;1.70;;
21152;SDS011;10734;44.792;20.482;2022-08-03T14:43:07;2.33;;;1.65;;
21152;SDS011;10734;44.792;20.482;2022-08-03T14:45:33;2.25;;;1.80;;
21152;SDS011;10734;44.792;20.482;2022-08-03T14:48:00;2.22;;;1.80;;
21152;SDS011;10734;44.792;20.482;2022-08-03T14:50:48;3.22;;;1.60;;
21152;SDS011;10734;44.792;20.482;2022-08-03T14:53:17;2.85;;;1.67;;
21152;SDS011;10734;44.792;20.482;2022-08-03T14:55:45;1.98;;;1.75;;
21152;SDS011;10734;44.792;20.482;2022-08-03T14:58:17;4.43;;;1.70;;
21152;SDS011;10734;44.792;20.482;2022-08-03T15:00:47;1.92;;;1.75;;
21152;SDS011;10734;44.792;20.482;2022-08-03T15:03:14;1.92;;;1.60;;
21152;SDS011;10734;44.792;20.482;2022-08-03T15:05:49;4.50;;;2.13;;
21152;SDS011;10734;44.792;20.482;2022-08-03T15:08:16;4.40;;;1.95;;
21152;SDS011;10734;44.792;20.482;2022-08-03T15:10:43;3.13;;;2.00;;
21152;SDS011;10734;44.792;20.482;2022-08-03T15:13:11;2.25;;;1.80;;
21152;SDS011;10734;44.792;20.482;2022-08-03T15:15:39;3.20;;;2.08;;
21152;SDS011;10734;44.792;20.482;2022-08-03T15:18:06;4.38;;;2.10;;
21152;SDS011;10734;44.792;20.482;2022-08-03T15:20:33;1.70;;;1.60;;
21152;SDS011;10734;44.792;20.482;2022-08-03T15:23:16;2.75;;;1.80;;
21152;SDS011;10734;44.792;20.482;2022-08-03T15:25:44;2.08;;;1.45;;
21152;SDS011;10734;44.792;20.482;2022-08-03T15:28:31;5.00;;;1.58;;
21152;SDS011;10734;44.792;20.482;2022-08-03T15:30:59;4.22;;;1.80;;
21152;SDS011;10734;44.792;20.482;2022-08-03T15:33:26;1.92;;;1.80;;
21152;SDS011;10734;44.792;20.482;2022-08-03T15:35:54;1.83;;;1.58;;
21152;SDS011;10734;44.792;20.482;2022-08-03T15:38:22;3.38;;;1.80;;
21152;SDS011;10734;44.792;20.482;2022-08-03T15:40:51;6.03;;;1.70;;
21152;SDS011;10734;44.792;20.482;2022-08-03T15:43:24;5.03;;;1.80;;
21152;SDS011;10734;44.792;20.482;2022-08-03T15:45:50;1.70;;;1.60;;
21152;SDS011;10734;44.792;20.482;2022-08-03T15:48:37;4.05;;;1.85;;
21152;SDS011;10734;44.792;20.482;2022-08-03T15:51:04;4.75;;;1.90;;
21152;SDS011;10734;44.792;20.482;2022-08-03T15:53:32;4.47;;;1.88;;
21152;SDS011;10734;44.792;20.482;2022-08-03T15:55:59;3.03;;;1.80;;